createdAt,value
2023-03-18T00:01:40.262Z,96373.63
2023-03-18T00:04:10.181Z,96363.06
2023-03-18T00:06:38.963Z,96376.38
2023-03-18T00:09:08.200Z,96379.91
2023-03-18T00:11:37.071Z,96374.22
2023-03-18T00:14:06.390Z,96373.00
2023-03-18T00:16:38.980Z,96382.00
2023-03-18T00:19:21.233Z,96384.97
2023-03-18T00:21:57.051Z,96381.53
2023-03-18T00:24:28.624Z,96383.22
2023-03-18T00:26:58.039Z,96386.72
2023-03-18T00:29:26.927Z,96387.56
2023-03-18T00:31:55.607Z,96383.91
2023-03-18T00:34:24.468Z,96388.41
2023-03-18T00:36:57.502Z,96385.13
2023-03-18T00:39:30.117Z,96378.50
2023-03-18T00:41:59.193Z,96367.72
2023-03-18T00:44:28.101Z,96377.03
2023-03-18T00:46:57.459Z,96379.78
2023-03-18T00:49:27.025Z,96376.47
2023-03-18T00:51:55.834Z,96374.16
2023-03-18T00:54:25.355Z,96362.84
2023-03-18T00:56:54.617Z,96340.38
2023-03-18T00:59:24.461Z,96364.41
2023-03-18T01:01:54.177Z,96362.53
2023-03-18T01:04:23.748Z,96353.34
2023-03-18T01:06:54.385Z,96354.13
2023-03-18T01:09:24.222Z,96353.25
2023-03-18T01:11:54.194Z,96342.28
2023-03-18T01:14:22.965Z,96348.97
2023-03-18T01:16:51.867Z,96348.34
2023-03-18T01:19:20.974Z,96352.25
2023-03-18T01:21:51.047Z,96334.63
2023-03-18T01:24:20.002Z,96336.25
2023-03-18T01:26:49.104Z,96339.31
2023-03-18T01:29:18.713Z,96332.50
2023-03-18T01:31:48.458Z,96327.78
2023-03-18T01:34:19.716Z,96319.13
2023-03-18T01:36:52.299Z,96317.69
2023-03-18T01:39:24.194Z,96335.34
2023-03-18T01:41:53.967Z,96332.88
2023-03-18T01:44:40.974Z,96336.13
2023-03-18T01:47:12.052Z,96334.22
2023-03-18T01:49:49.226Z,96338.50
2023-03-18T01:52:22.572Z,96337.38
2023-03-18T01:55:03.550Z,96337.72
2023-03-18T01:57:34.573Z,96341.94
2023-03-18T02:00:07.664Z,96333.69
2023-03-18T02:02:45.173Z,96340.25
2023-03-18T02:05:19.569Z,96317.97
2023-03-18T02:07:48.383Z,96342.09
2023-03-18T02:10:29.093Z,96335.66
2023-03-18T02:13:07.455Z,96337.41
2023-03-18T02:15:59.352Z,96335.13
2023-03-18T02:18:34.335Z,96340.81
2023-03-18T02:21:21.650Z,96332.19
2023-03-18T02:24:15.039Z,96330.47
2023-03-18T02:26:57.617Z,96329.78
2023-03-18T02:29:37.494Z,96322.09
2023-03-18T02:32:15.975Z,96318.50
2023-03-18T02:34:46.274Z,96313.13
2023-03-18T02:37:16.127Z,96318.44
2023-03-18T02:39:46.147Z,96304.75
2023-03-18T02:42:16.300Z,96319.25
2023-03-18T02:44:51.840Z,96321.34
2023-03-18T02:47:45.325Z,96323.88
2023-03-18T02:50:15.331Z,96324.25
2023-03-18T02:52:44.775Z,96321.72
2023-03-18T02:55:15.697Z,96320.81
2023-03-18T02:57:44.537Z,96323.78
2023-03-18T03:00:14.313Z,96314.84
2023-03-18T03:02:44.149Z,96312.94
2023-03-18T03:05:13.043Z,96305.25
2023-03-18T03:07:43.082Z,96311.59
2023-03-18T03:10:14.318Z,96303.50
2023-03-18T03:12:44.777Z,96294.06
2023-03-18T03:15:14.980Z,96301.72
2023-03-18T03:17:50.101Z,96295.59
2023-03-18T03:20:19.915Z,96290.81
2023-03-18T03:22:49.009Z,96278.38
2023-03-18T03:25:20.042Z,96261.97
2023-03-18T03:27:50.435Z,96277.28
2023-03-18T03:30:19.938Z,96275.34
2023-03-18T03:32:49.762Z,96274.44
2023-03-18T03:35:20.536Z,96274.88
2023-03-18T03:37:49.801Z,96269.34
2023-03-18T03:40:21.001Z,96272.75
2023-03-18T03:42:52.607Z,96270.28
2023-03-18T03:45:21.394Z,96264.81
2023-03-18T03:47:52.344Z,96268.03
2023-03-18T03:50:22.208Z,96243.03
2023-03-18T03:52:51.233Z,96242.41
2023-03-18T03:55:22.371Z,96260.03
2023-03-18T03:57:52.188Z,96244.69
2023-03-18T04:00:24.822Z,96256.53
2023-03-18T04:02:53.963Z,96256.81
2023-03-18T04:05:25.802Z,96246.56
2023-03-18T04:07:56.169Z,96244.88
2023-03-18T04:10:37.198Z,96233.09
2023-03-18T04:13:09.475Z,96221.34
2023-03-18T04:15:39.411Z,96211.75
2023-03-18T04:18:12.410Z,96230.41
2023-03-18T04:20:42.097Z,96220.56
2023-03-18T04:23:29.390Z,96216.94
2023-03-18T04:25:59.147Z,96214.09
2023-03-18T04:28:28.036Z,96212.91
2023-03-18T04:30:57.020Z,96206.03
2023-03-18T04:33:26.180Z,96196.78
2023-03-18T04:35:54.958Z,96194.53
2023-03-18T04:38:24.193Z,96197.19
2023-03-18T04:40:54.707Z,96189.25
2023-03-18T04:43:24.353Z,96185.63
2023-03-18T04:45:53.729Z,96173.72
2023-03-18T04:48:23.026Z,96179.09
2023-03-18T04:50:53.118Z,96154.41
2023-03-18T04:53:26.995Z,96170.94
2023-03-18T04:55:56.421Z,96170.09
2023-03-18T04:58:31.617Z,96140.69
2023-03-18T05:01:14.840Z,96157.56
2023-03-18T05:03:44.823Z,96147.19
2023-03-18T05:06:23.216Z,96124.69
2023-03-18T05:09:07.250Z,96138.41
2023-03-18T05:11:37.412Z,96128.59
2023-03-18T05:14:18.109Z,96127.34
2023-03-18T05:16:49.894Z,96114.25
2023-03-18T05:19:20.384Z,96118.13
2023-03-18T05:21:57.838Z,96089.75
2023-03-18T05:24:27.906Z,96115.63
2023-03-18T05:26:58.049Z,96101.72
2023-03-18T05:29:33.967Z,96108.63
2023-03-18T05:32:17.313Z,96095.53
2023-03-18T05:34:49.701Z,96089.75
2023-03-18T05:37:19.393Z,96080.69
2023-03-18T05:39:58.916Z,96086.91
2023-03-18T05:42:28.804Z,96078.44
2023-03-18T05:44:58.554Z,96081.38
2023-03-18T05:47:28.608Z,96075.84
2023-03-18T05:50:15.360Z,96071.91
2023-03-18T05:52:45.330Z,96062.25
2023-03-18T05:55:21.463Z,96051.09
2023-03-18T05:57:50.660Z,96048.78
2023-03-18T06:00:21.458Z,96041.41
2023-03-18T06:02:55.240Z,96020.69
2023-03-18T06:05:25.057Z,96037.25
2023-03-18T06:07:55.555Z,96036.03
2023-03-18T06:10:25.946Z,96033.53
2023-03-18T06:12:58.774Z,96026.78
2023-03-18T06:15:28.436Z,96034.28
2023-03-18T06:18:00.402Z,96023.63
2023-03-18T06:20:30.262Z,96012.66
2023-03-18T06:23:00.580Z,96018.41
2023-03-18T06:25:30.263Z,96010.16
2023-03-18T06:27:59.960Z,95997.25
2023-03-18T06:30:30.998Z,95997.31
2023-03-18T06:33:00.319Z,95978.22
2023-03-18T06:35:29.616Z,95993.69
2023-03-18T06:37:58.892Z,95980.75
2023-03-18T06:40:28.534Z,95975.91
2023-03-18T06:43:00.040Z,95973.88
2023-03-18T06:45:39.106Z,95962.56
2023-03-18T06:48:11.166Z,95959.91
2023-03-18T06:50:43.759Z,95954.63
2023-03-18T06:53:25.117Z,95937.44
2023-03-18T06:55:57.465Z,95939.47
2023-03-18T06:58:34.884Z,95945.50
2023-03-18T07:01:09.898Z,95927.78
2023-03-18T07:03:44.514Z,95927.59
2023-03-18T07:06:17.257Z,95911.31
2023-03-18T07:08:46.737Z,95925.50
2023-03-18T07:11:17.393Z,95915.72
2023-03-18T07:13:47.786Z,95915.63
2023-03-18T07:16:24.391Z,95918.53
2023-03-18T07:18:54.173Z,95899.31
2023-03-18T07:21:24.262Z,95906.50
2023-03-18T07:23:55.825Z,95895.81
2023-03-18T07:26:27.169Z,95890.06
2023-03-18T07:28:56.189Z,95888.31
2023-03-18T07:31:26.141Z,95876.16
2023-03-18T07:33:55.113Z,95872.94
2023-03-18T07:36:24.991Z,95874.22
2023-03-18T07:38:53.669Z,95873.19
2023-03-18T07:41:22.464Z,95861.09
2023-03-18T07:43:51.375Z,95864.00
2023-03-18T07:46:20.186Z,95868.19
2023-03-18T07:48:50.462Z,95869.34
2023-03-18T07:51:19.559Z,95873.03
2023-03-18T07:53:48.502Z,95864.97
2023-03-18T07:56:17.389Z,95860.06
2023-03-18T07:58:46.432Z,95842.66
2023-03-18T08:01:19.184Z,95857.13
2023-03-18T08:03:48.873Z,95850.06
2023-03-18T08:06:19.696Z,95830.09
2023-03-18T08:08:52.521Z,95840.31
2023-03-18T08:11:24.875Z,95828.19
2023-03-18T08:13:57.355Z,95828.06
2023-03-18T08:16:31.205Z,95826.06
2023-03-18T08:19:04.626Z,95825.63
2023-03-18T08:21:38.126Z,95822.56
2023-03-18T08:24:10.777Z,95820.09
2023-03-18T08:26:42.775Z,95815.13
2023-03-18T08:29:15.199Z,95811.13
2023-03-18T08:31:47.181Z,95810.41
2023-03-18T08:34:20.676Z,95810.19
2023-03-18T08:36:52.885Z,95788.88
2023-03-18T08:39:25.867Z,95775.78
2023-03-18T08:41:59.132Z,95782.91
2023-03-18T08:44:31.357Z,95782.63
2023-03-18T08:47:04.565Z,95755.09
2023-03-18T08:49:34.215Z,95772.66
2023-03-18T08:52:05.152Z,95768.38
2023-03-18T08:54:34.186Z,95764.09
2023-03-18T08:57:04.275Z,95751.41
2023-03-18T08:59:34.188Z,95763.53
2023-03-18T09:02:06.017Z,95758.31
2023-03-18T09:04:37.632Z,95758.06
2023-03-18T09:07:07.580Z,95743.69
2023-03-18T09:09:43.606Z,95724.75
2023-03-18T09:12:14.755Z,95730.91
2023-03-18T09:14:44.413Z,95748.25
2023-03-18T09:17:15.245Z,95741.25
2023-03-18T09:19:44.178Z,95733.13
2023-03-18T09:22:13.054Z,95730.75
2023-03-18T09:24:42.198Z,95728.34
2023-03-18T09:27:11.385Z,95716.69
2023-03-18T09:29:40.304Z,95720.94
2023-03-18T09:32:09.271Z,95711.25
2023-03-18T09:34:38.233Z,95709.97
2023-03-18T09:37:07.125Z,95715.31
2023-03-18T09:39:35.866Z,95708.72
2023-03-18T09:42:43.459Z,95704.03
2023-03-18T09:45:22.111Z,95680.00
2023-03-18T09:48:09.164Z,95702.81
2023-03-18T09:50:51.621Z,95705.47
2023-03-18T09:54:04.967Z,95699.25
2023-03-18T09:56:36.561Z,95676.50
2023-03-18T09:59:17.872Z,95683.69
2023-03-18T10:01:54.927Z,95681.66
2023-03-18T10:04:32.186Z,95677.63
2023-03-18T10:07:19.065Z,95686.16
2023-03-18T10:09:53.012Z,95694.22
2023-03-18T10:12:40.333Z,95682.66
2023-03-18T10:15:24.420Z,95669.50
2023-03-18T10:18:05.830Z,95680.34
2023-03-18T10:21:16.364Z,95679.53
2023-03-18T10:23:50.668Z,95672.19
2023-03-18T10:26:47.655Z,95668.66
2023-03-18T10:29:41.218Z,95662.38
2023-03-18T10:32:22.251Z,95663.47
2023-03-18T10:35:16.100Z,95666.47
2023-03-18T10:37:57.179Z,95660.22
2023-03-18T10:40:26.341Z,95653.53
2023-03-18T10:42:57.042Z,95637.22
2023-03-18T10:45:29.193Z,95658.00
2023-03-18T10:48:09.497Z,95662.88
2023-03-18T10:50:47.055Z,95661.25
2023-03-18T10:53:19.753Z,95664.59
2023-03-18T10:55:57.603Z,95663.28
2023-03-18T10:58:30.109Z,95644.44
2023-03-18T11:01:00.358Z,95638.38
2023-03-18T11:03:36.114Z,95649.88
2023-03-18T11:06:07.844Z,95635.34
2023-03-18T11:08:41.575Z,95649.97
2023-03-18T11:11:22.617Z,95654.00
2023-03-18T11:13:54.139Z,95660.41
2023-03-18T11:16:23.825Z,95650.59
2023-03-18T11:18:53.606Z,95642.78
2023-03-18T11:21:24.521Z,95644.22
2023-03-18T11:24:12.156Z,95649.03
2023-03-18T11:26:47.622Z,95635.22
2023-03-18T11:29:21.131Z,95642.38
2023-03-18T11:32:01.328Z,95639.91
2023-03-18T11:34:33.258Z,95641.34
2023-03-18T11:37:06.191Z,95637.34
2023-03-18T11:39:40.734Z,95637.34
2023-03-18T11:42:22.581Z,95635.66
2023-03-18T11:44:57.591Z,95639.72
2023-03-18T11:47:31.243Z,95630.44
2023-03-18T11:50:02.905Z,95637.19
2023-03-18T11:52:50.536Z,95629.44
2023-03-18T11:55:27.677Z,95637.00
2023-03-18T11:58:34.017Z,95631.84
2023-03-18T12:01:35.063Z,95604.16
2023-03-18T12:04:31.909Z,95634.16
2023-03-18T12:07:04.397Z,95633.97
2023-03-18T12:09:39.327Z,95633.75
2023-03-18T12:12:47.189Z,95630.41
2023-03-18T12:15:37.721Z,95622.91
2023-03-18T12:18:09.283Z,95626.28
2023-03-18T12:20:46.321Z,95621.72
2023-03-18T12:23:33.504Z,95622.41
2023-03-18T12:26:22.100Z,95620.34
2023-03-18T12:29:10.173Z,95616.75
2023-03-18T12:31:54.033Z,95613.47
2023-03-18T12:34:34.814Z,95615.63
2023-03-18T12:37:19.901Z,95609.34
2023-03-18T12:39:54.852Z,95615.28
2023-03-18T12:42:50.442Z,95606.41
2023-03-18T12:45:24.360Z,95599.41
2023-03-18T12:48:05.870Z,95604.31
2023-03-18T12:50:42.791Z,95606.50
2023-03-18T12:53:38.965Z,95598.28
2023-03-18T12:56:30.781Z,95595.44
2023-03-18T12:59:05.989Z,95594.91
2023-03-18T13:01:50.868Z,95590.16
2023-03-18T13:04:25.145Z,95574.97
2023-03-18T13:07:16.532Z,95584.28
2023-03-18T13:09:53.351Z,95559.34
2023-03-18T13:12:27.550Z,95580.13
2023-03-18T13:15:17.322Z,95578.91
2023-03-18T13:17:49.845Z,95565.25
2023-03-18T13:20:26.329Z,95575.38
2023-03-18T13:23:14.692Z,95576.50
2023-03-18T13:26:13.145Z,95581.50
2023-03-18T13:28:55.070Z,95569.16
2023-03-18T13:32:01.572Z,95577.28
2023-03-18T13:34:30.052Z,95577.38
2023-03-18T13:37:12.993Z,95578.03
2023-03-18T13:40:18.736Z,95577.69
2023-03-18T13:42:51.168Z,95576.34
2023-03-18T13:45:21.142Z,95578.66
2023-03-18T13:48:00.141Z,95576.00
2023-03-18T13:50:38.536Z,95578.31
2023-03-18T13:53:25.185Z,95577.31
2023-03-18T13:55:55.778Z,95574.63
2023-03-18T13:58:32.205Z,95564.28
2023-03-18T14:01:02.481Z,95563.84
2023-03-18T14:03:46.067Z,95559.25
2023-03-18T14:06:18.401Z,95566.97
2023-03-18T14:08:51.405Z,95554.59
2023-03-18T14:11:21.153Z,95559.59
2023-03-18T14:13:56.371Z,95546.59
2023-03-18T14:16:53.392Z,95549.09
2023-03-18T14:19:33.081Z,95530.00
2023-03-18T14:22:28.520Z,95550.19
2023-03-18T14:25:18.491Z,95548.56
2023-03-18T14:27:56.228Z,95551.59
2023-03-18T14:30:30.872Z,95543.47
2023-03-18T14:33:03.809Z,95547.69
2023-03-18T14:35:48.459Z,95543.72
2023-03-18T14:38:38.978Z,95547.94
2023-03-18T14:41:18.321Z,95549.84
2023-03-18T14:44:03.113Z,95535.16
2023-03-18T14:46:41.854Z,95524.19
2023-03-18T14:49:47.715Z,95509.88
2023-03-18T14:52:39.324Z,95535.75
2023-03-18T14:55:29.156Z,95536.88
2023-03-18T14:57:58.254Z,95524.09
2023-03-18T15:00:32.071Z,95530.13
2023-03-18T15:03:15.442Z,95512.69
2023-03-18T15:05:47.065Z,95524.94
2023-03-18T15:08:19.758Z,95531.41
2023-03-18T15:10:51.343Z,95533.97
2023-03-18T15:13:23.676Z,95531.22
2023-03-18T15:15:56.980Z,95526.88
2023-03-18T15:18:38.677Z,95515.56
2023-03-18T15:21:17.936Z,95515.91
2023-03-18T15:24:01.210Z,95517.16
2023-03-18T15:26:40.884Z,95521.28
2023-03-18T15:29:32.103Z,95521.50
2023-03-18T15:32:10.644Z,95524.44
2023-03-18T15:34:44.133Z,95520.44
2023-03-18T15:37:36.291Z,95527.56
2023-03-18T15:40:23.478Z,95513.78
2023-03-18T15:42:57.690Z,95522.78
2023-03-18T15:45:30.001Z,95517.78
2023-03-18T15:48:17.520Z,95511.69
2023-03-18T15:50:56.349Z,95515.00
2023-03-18T15:53:34.117Z,95513.81
2023-03-18T15:56:20.492Z,95506.59
2023-03-18T15:58:58.871Z,95506.91
2023-03-18T16:01:28.443Z,95506.03
2023-03-18T16:03:58.009Z,95504.81
2023-03-18T16:06:27.600Z,95499.72
2023-03-18T16:08:57.458Z,95495.59
